sensor_id;sensor_type;location;lat;lon;timestamp;P1;durP1;ratioP1;P2;durP2;ratioP2
8861;SDS011;4799;50.996;4.754;2023-08-08T00:02:21;5.70;;;3.00;;
8861;SDS011;4799;50.996;4.754;2023-08-08T00:04:48;4.13;;;2.73;;
8861;SDS011;4799;50.996;4.754;2023-08-08T00:07:15;3.87;;;2.80;;
8861;SDS011;4799;50.996;4.754;2023-08-08T00:09:40;4.97;;;2.67;;
8861;SDS011;4799;50.996;4.754;2023-08-08T00:12:06;6.60;;;2.97;;
8861;SDS011;4799;50.996;4.754;2023-08-08T00:14:32;6.37;;;3.00;;
8861;SDS011;4799;50.996;4.754;2023-08-08T00:16:58;4.73;;;2.90;;
8861;SDS011;4799;50.996;4.754;2023-08-08T00:19:23;5.73;;;2.90;;
8861;SDS011;4799;50.996;4.754;2023-08-08T00:21:49;5.53;;;2.90;;
8861;SDS011;4799;50.996;4.754;2023-08-08T00:24:15;3.83;;;2.90;;
8861;SDS011;4799;50.996;4.754;2023-08-08T00:26:41;5.73;;;3.27;;
8861;SDS011;4799;50.996;4.754;2023-08-08T00:29:06;6.80;;;3.07;;
8861;SDS011;4799;50.996;4.754;2023-08-08T00:31:32;5.33;;;3.10;;
8861;SDS011;4799;50.996;4.754;2023-08-08T00:33:58;5.53;;;3.10;;
8861;SDS011;4799;50.996;4.754;2023-08-08T00:36:23;4.70;;;2.80;;
8861;SDS011;4799;50.996;4.754;2023-08-08T00:38:49;5.47;;;3.07;;
8861;SDS011;4799;50.996;4.754;2023-08-08T00:41:15;7.00;;;3.10;;
8861;SDS011;4799;50.996;4.754;2023-08-08T00:43:41;7.47;;;3.20;;
8861;SDS011;4799;50.996;4.754;2023-08-08T00:46:08;4.67;;;3.10;;
8861;SDS011;4799;50.996;4.754;2023-08-08T00:48:34;5.30;;;3.20;;
8861;SDS011;4799;50.996;4.754;2023-08-08T00:51:00;7.47;;;3.43;;
8861;SDS011;4799;50.996;4.754;2023-08-08T00:53:26;6.27;;;3.07;;
8861;SDS011;4799;50.996;4.754;2023-08-08T00:55:56;6.00;;;3.20;;
8861;SDS011;4799;50.996;4.754;2023-08-08T00:58:21;6.33;;;3.30;;
8861;SDS011;4799;50.996;4.754;2023-08-08T01:00:47;6.57;;;3.43;;
8861;SDS011;4799;50.996;4.754;2023-08-08T01:03:13;7.90;;;3.43;;
8861;SDS011;4799;50.996;4.754;2023-08-08T01:05:41;7.07;;;3.47;;
8861;SDS011;4799;50.996;4.754;2023-08-08T01:08:13;7.00;;;3.83;;
8861;SDS011;4799;50.996;4.754;2023-08-08T01:10:44;6.57;;;3.23;;
8861;SDS011;4799;50.996;4.754;2023-08-08T01:13:12;8.33;;;3.70;;
8861;SDS011;4799;50.996;4.754;2023-08-08T01:15:45;7.13;;;3.80;;
8861;SDS011;4799;50.996;4.754;2023-08-08T01:18:13;7.37;;;3.53;;
8861;SDS011;4799;50.996;4.754;2023-08-08T01:20:40;5.70;;;3.40;;
8861;SDS011;4799;50.996;4.754;2023-08-08T01:23:28;9.37;;;3.70;;
8861;SDS011;4799;50.996;4.754;2023-08-08T01:25:57;7.90;;;3.80;;
8861;SDS011;4799;50.996;4.754;2023-08-08T01:28:24;6.43;;;3.73;;
8861;SDS011;4799;50.996;4.754;2023-08-08T01:30:51;7.43;;;3.20;;
8861;SDS011;4799;50.996;4.754;2023-08-08T01:33:17;8.23;;;3.90;;
8861;SDS011;4799;50.996;4.754;2023-08-08T01:36:05;8.57;;;4.30;;
8861;SDS011;4799;50.996;4.754;2023-08-08T01:38:40;5.83;;;3.70;;
8861;SDS011;4799;50.996;4.754;2023-08-08T01:41:08;9.83;;;4.13;;
8861;SDS011;4799;50.996;4.754;2023-08-08T01:43:34;10.00;;;4.37;;
8861;SDS011;4799;50.996;4.754;2023-08-08T01:46:02;10.50;;;4.20;;
8861;SDS011;4799;50.996;4.754;2023-08-08T01:48:29;11.57;;;4.77;;
8861;SDS011;4799;50.996;4.754;2023-08-08T01:50:55;8.87;;;4.23;;
8861;SDS011;4799;50.996;4.754;2023-08-08T01:53:21;10.03;;;4.53;;
8861;SDS011;4799;50.996;4.754;2023-08-08T01:55:47;9.67;;;4.10;;
8861;SDS011;4799;50.996;4.754;2023-08-08T01:58:12;8.67;;;4.37;;
8861;SDS011;4799;50.996;4.754;2023-08-08T02:00:38;9.67;;;4.40;;
8861;SDS011;4799;50.996;4.754;2023-08-08T02:03:06;11.57;;;5.10;;
8861;SDS011;4799;50.996;4.754;2023-08-08T02:05:32;9.47;;;4.20;;
8861;SDS011;4799;50.996;4.754;2023-08-08T02:07:57;8.93;;;4.30;;
8861;SDS011;4799;50.996;4.754;2023-08-08T02:10:23;10.23;;;4.53;;
8861;SDS011;4799;50.996;4.754;2023-08-08T02:12:49;10.40;;;5.00;;
8861;SDS011;4799;50.996;4.754;2023-08-08T02:15:15;10.40;;;4.50;;
8861;SDS011;4799;50.996;4.754;2023-08-08T02:17:40;8.93;;;4.90;;
8861;SDS011;4799;50.996;4.754;2023-08-08T02:20:06;10.90;;;4.90;;
8861;SDS011;4799;50.996;4.754;2023-08-08T02:22:33;10.33;;;5.03;;
8861;SDS011;4799;50.996;4.754;2023-08-08T02:24:59;12.87;;;5.20;;
8861;SDS011;4799;50.996;4.754;2023-08-08T02:27:24;8.43;;;4.97;;
8861;SDS011;4799;50.996;4.754;2023-08-08T02:29:50;11.80;;;5.00;;
8861;SDS011;4799;50.996;4.754;2023-08-08T02:32:16;12.00;;;5.13;;
8861;SDS011;4799;50.996;4.754;2023-08-08T02:34:42;9.10;;;5.20;;
8861;SDS011;4799;50.996;4.754;2023-08-08T02:37:08;9.63;;;5.03;;
8861;SDS011;4799;50.996;4.754;2023-08-08T02:39:33;10.43;;;5.00;;
8861;SDS011;4799;50.996;4.754;2023-08-08T02:41:59;8.60;;;5.43;;
8861;SDS011;4799;50.996;4.754;2023-08-08T02:44:25;13.70;;;5.60;;
8861;SDS011;4799;50.996;4.754;2023-08-08T02:46:50;12.97;;;4.87;;
8861;SDS011;4799;50.996;4.754;2023-08-08T02:49:16;15.70;;;5.63;;
8861;SDS011;4799;50.996;4.754;2023-08-08T02:51:42;11.90;;;6.27;;
8861;SDS011;4799;50.996;4.754;2023-08-08T02:54:07;14.37;;;5.77;;
8861;SDS011;4799;50.996;4.754;2023-08-08T02:56:33;10.63;;;5.67;;
8861;SDS011;4799;50.996;4.754;2023-08-08T02:58:59;11.90;;;5.67;;
8861;SDS011;4799;50.996;4.754;2023-08-08T03:01:25;12.60;;;5.83;;
8861;SDS011;4799;50.996;4.754;2023-08-08T03:03:50;10.60;;;5.53;;
8861;SDS011;4799;50.996;4.754;2023-08-08T03:06:16;14.47;;;5.83;;
8861;SDS011;4799;50.996;4.754;2023-08-08T03:08:42;13.77;;;6.07;;
8861;SDS011;4799;50.996;4.754;2023-08-08T03:11:07;10.70;;;5.47;;
8861;SDS011;4799;50.996;4.754;2023-08-08T03:13:33;12.93;;;5.80;;
8861;SDS011;4799;50.996;4.754;2023-08-08T03:15:59;10.43;;;5.90;;
8861;SDS011;4799;50.996;4.754;2023-08-08T03:18:24;10.07;;;6.10;;
8861;SDS011;4799;50.996;4.754;2023-08-08T03:20:51;13.73;;;6.57;;
8861;SDS011;4799;50.996;4.754;2023-08-08T03:23:17;11.07;;;5.83;;
8861;SDS011;4799;50.996;4.754;2023-08-08T03:25:43;9.50;;;6.10;;
8861;SDS011;4799;50.996;4.754;2023-08-08T03:28:09;11.37;;;5.53;;
8861;SDS011;4799;50.996;4.754;2023-08-08T03:30:38;10.80;;;5.90;;
8861;SDS011;4799;50.996;4.754;2023-08-08T03:33:04;16.40;;;6.10;;
8861;SDS011;4799;50.996;4.754;2023-08-08T03:35:30;12.57;;;6.60;;
8861;SDS011;4799;50.996;4.754;2023-08-08T03:37:56;13.10;;;5.90;;
8861;SDS011;4799;50.996;4.754;2023-08-08T03:40:21;14.20;;;6.37;;
8861;SDS011;4799;50.996;4.754;2023-08-08T03:42:47;13.43;;;5.97;;
8861;SDS011;4799;50.996;4.754;2023-08-08T03:45:13;11.57;;;6.30;;
8861;SDS011;4799;50.996;4.754;2023-08-08T03:47:38;11.07;;;5.90;;
8861;SDS011;4799;50.996;4.754;2023-08-08T03:50:05;15.00;;;6.17;;
8861;SDS011;4799;50.996;4.754;2023-08-08T03:52:31;15.57;;;6.07;;
8861;SDS011;4799;50.996;4.754;2023-08-08T03:55:00;12.50;;;5.90;;
8861;SDS011;4799;50.996;4.754;2023-08-08T03:57:26;13.67;;;6.40;;
8861;SDS011;4799;50.996;4.754;2023-08-08T03:59:52;14.63;;;6.50;;
8861;SDS011;4799;50.996;4.754;2023-08-08T04:02:18;16.57;;;6.40;;
8861;SDS011;4799;50.996;4.754;2023-08-08T04:04:43;15.57;;;6.30;;
8861;SDS011;4799;50.996;4.754;2023-08-08T04:07:09;11.40;;;6.20;;
8861;SDS011;4799;50.996;4.754;2023-08-08T04:09:35;15.83;;;6.33;;
8861;SDS011;4799;50.996;4.754;2023-08-08T04:12:00;14.50;;;6.80;;
8861;SDS011;4799;50.996;4.754;2023-08-08T04:14:26;10.93;;;6.73;;
8861;SDS011;4799;50.996;4.754;2023-08-08T04:16:52;16.50;;;7.37;;
8861;SDS011;4799;50.996;4.754;2023-08-08T04:19:18;10.97;;;6.60;;
8861;SDS011;4799;50.996;4.754;2023-08-08T04:21:43;17.57;;;7.83;;
8861;SDS011;4799;50.996;4.754;2023-08-08T04:24:09;17.07;;;7.50;;
8861;SDS011;4799;50.996;4.754;2023-08-08T04:26:37;13.80;;;7.33;;
8861;SDS011;4799;50.996;4.754;2023-08-08T04:29:02;14.93;;;7.67;;
8861;SDS011;4799;50.996;4.754;2023-08-08T04:31:28;14.03;;;7.40;;
8861;SDS011;4799;50.996;4.754;2023-08-08T04:33:54;12.37;;;7.43;;
8861;SDS011;4799;50.996;4.754;2023-08-08T04:36:26;14.83;;;7.67;;
8861;SDS011;4799;50.996;4.754;2023-08-08T04:38:52;14.93;;;7.70;;
8861;SDS011;4799;50.996;4.754;2023-08-08T04:41:18;13.87;;;7.87;;
8861;SDS011;4799;50.996;4.754;2023-08-08T04:43:44;16.37;;;8.10;;
8861;SDS011;4799;50.996;4.754;2023-08-08T04:46:09;16.70;;;8.07;;
8861;SDS011;4799;50.996;4.754;2023-08-08T04:48:35;17.40;;;7.43;;
8861;SDS011;4799;50.996;4.754;2023-08-08T04:51:04;17.67;;;8.00;;
8861;SDS011;4799;50.996;4.754;2023-08-08T04:53:30;12.97;;;7.37;;
8861;SDS011;4799;50.996;4.754;2023-08-08T04:55:55;17.40;;;7.60;;
8861;SDS011;4799;50.996;4.754;2023-08-08T04:58:21;17.03;;;7.80;;
8861;SDS011;4799;50.996;4.754;2023-08-08T05:00:47;14.10;;;7.27;;
8861;SDS011;4799;50.996;4.754;2023-08-08T05:03:13;14.30;;;7.33;;
8861;SDS011;4799;50.996;4.754;2023-08-08T05:05:38;15.43;;;7.80;;
8861;SDS011;4799;50.996;4.754;2023-08-08T05:08:04;14.33;;;7.80;;
8861;SDS011;4799;50.996;4.754;2023-08-08T05:10:30;14.70;;;7.60;;
8861;SDS011;4799;50.996;4.754;2023-08-08T05:12:56;13.53;;;6.90;;
8861;SDS011;4799;50.996;4.754;2023-08-08T05:15:22;14.40;;;7.27;;
8861;SDS011;4799;50.996;4.754;2023-08-08T05:17:48;13.03;;;6.87;;
8861;SDS011;4799;50.996;4.754;2023-08-08T05:20:14;12.60;;;7.00;;
8861;SDS011;4799;50.996;4.754;2023-08-08T05:22:40;12.00;;;6.70;;
8861;SDS011;4799;50.996;4.754;2023-08-08T05:25:06;14.37;;;6.90;;
8861;SDS011;4799;50.996;4.754;2023-08-08T05:27:32;14.47;;;6.70;;
8861;SDS011;4799;50.996;4.754;2023-08-08T05:29:58;12.57;;;6.60;;
8861;SDS011;4799;50.996;4.754;2023-08-08T05:32:23;15.23;;;6.50;;
8861;SDS011;4799;50.996;4.754;2023-08-08T05:34:50;13.53;;;6.57;;
8861;SDS011;4799;50.996;4.754;2023-08-08T05:37:16;10.70;;;6.57;;
8861;SDS011;4799;50.996;4.754;2023-08-08T05:39:42;12.67;;;6.13;;
8861;SDS011;4799;50.996;4.754;2023-08-08T05:42:08;11.90;;;5.63;;
8861;SDS011;4799;50.996;4.754;2023-08-08T05:44:33;12.47;;;6.40;;
8861;SDS011;4799;50.996;4.754;2023-08-08T05:46:59;13.07;;;6.53;;
8861;SDS011;4799;50.996;4.754;2023-08-08T05:49:25;14.23;;;6.07;;
8861;SDS011;4799;50.996;4.754;2023-08-08T05:51:50;12.20;;;5.80;;
8861;SDS011;4799;50.996;4.754;2023-08-08T05:54:16;13.77;;;5.50;;
8861;SDS011;4799;50.996;4.754;2023-08-08T05:56:42;11.23;;;5.67;;
8861;SDS011;4799;50.996;4.754;2023-08-08T05:59:07;9.83;;;5.10;;
8861;SDS011;4799;50.996;4.754;2023-08-08T06:01:33;11.73;;;5.07;;
8861;SDS011;4799;50.996;4.754;2023-08-08T06:03:59;11.80;;;5.10;;
8861;SDS011;4799;50.996;4.754;2023-08-08T06:06:26;11.30;;;5.10;;
8861;SDS011;4799;50.996;4.754;2023-08-08T06:08:52;9.53;;;4.60;;
8861;SDS011;4799;50.996;4.754;2023-08-08T06:11:17;9.37;;;4.50;;
8861;SDS011;4799;50.996;4.754;2023-08-08T06:13:43;9.67;;;4.10;;
8861;SDS011;4799;50.996;4.754;2023-08-08T06:16:09;12.83;;;4.50;;
8861;SDS011;4799;50.996;4.754;2023-08-08T06:18:35;9.40;;;4.23;;
8861;SDS011;4799;50.996;4.754;2023-08-08T06:21:01;11.10;;;4.23;;
8861;SDS011;4799;50.996;4.754;2023-08-08T06:23:27;14.53;;;4.27;;
8861;SDS011;4799;50.996;4.754;2023-08-08T06:25:53;10.60;;;4.63;;
8861;SDS011;4799;50.996;4.754;2023-08-08T06:28:19;9.87;;;4.10;;
8861;SDS011;4799;50.996;4.754;2023-08-08T06:30:44;6.87;;;3.73;;
8861;SDS011;4799;50.996;4.754;2023-08-08T06:33:10;11.47;;;4.33;;
8861;SDS011;4799;50.996;4.754;2023-08-08T06:35:36;9.10;;;3.67;;
8861;SDS011;4799;50.996;4.754;2023-08-08T06:38:02;8.10;;;3.77;;
8861;SDS011;4799;50.996;4.754;2023-08-08T06:40:28;9.17;;;3.77;;
8861;SDS011;4799;50.996;4.754;2023-08-08T06:42:54;9.97;;;4.00;;
8861;SDS011;4799;50.996;4.754;2023-08-08T06:45:20;8.03;;;3.60;;
8861;SDS011;4799;50.996;4.754;2023-08-08T06:47:46;13.10;;;3.80;;
8861;SDS011;4799;50.996;4.754;2023-08-08T06:50:12;12.63;;;3.90;;
8861;SDS011;4799;50.996;4.754;2023-08-08T06:52:38;8.57;;;3.90;;
8861;SDS011;4799;50.996;4.754;2023-08-08T06:55:04;9.50;;;3.87;;
8861;SDS011;4799;50.996;4.754;2023-08-08T06:57:32;9.77;;;3.70;;
8861;SDS011;4799;50.996;4.754;2023-08-08T06:59:59;11.77;;;3.80;;
8861;SDS011;4799;50.996;4.754;2023-08-08T07:02:24;11.00;;;3.33;;
8861;SDS011;4799;50.996;4.754;2023-08-08T07:04:50;9.40;;;3.80;;
8861;SDS011;4799;50.996;4.754;2023-08-08T07:07:16;9.50;;;3.77;;
8861;SDS011;4799;50.996;4.754;2023-08-08T07:09:42;9.57;;;3.43;;
8861;SDS011;4799;50.996;4.754;2023-08-08T07:12:08;9.67;;;3.57;;
8861;SDS011;4799;50.996;4.754;2023-08-08T07:14:34;8.43;;;3.47;;
8861;SDS011;4799;50.996;4.754;2023-08-08T07:17:00;9.83;;;3.23;;
8861;SDS011;4799;50.996;4.754;2023-08-08T07:19:27;7.60;;;3.50;;
8861;SDS011;4799;50.996;4.754;2023-08-08T07:21:53;8.20;;;3.40;;
8861;SDS011;4799;50.996;4.754;2023-08-08T07:24:19;6.93;;;3.10;;
8861;SDS011;4799;50.996;4.754;2023-08-08T07:26:45;9.67;;;3.30;;
8861;SDS011;4799;50.996;4.754;2023-08-08T07:29:11;8.07;;;3.17;;
8861;SDS011;4799;50.996;4.754;2023-08-08T07:31:37;10.23;;;3.53;;
8861;SDS011;4799;50.996;4.754;2023-08-08T07:34:03;7.97;;;3.00;;
8861;SDS011;4799;50.996;4.754;2023-08-08T07:36:28;9.67;;;3.10;;
8861;SDS011;4799;50.996;4.754;2023-08-08T07:38:54;8.70;;;2.60;;
8861;SDS011;4799;50.996;4.754;2023-08-08T07:41:25;6.90;;;3.13;;
8861;SDS011;4799;50.996;4.754;2023-08-08T07:43:51;6.57;;;2.80;;
8861;SDS011;4799;50.996;4.754;2023-08-08T07:46:17;6.03;;;3.00;;
8861;SDS011;4799;50.996;4.754;2023-08-08T07:48:43;6.50;;;2.80;;
8861;SDS011;4799;50.996;4.754;2023-08-08T07:51:09;6.93;;;2.93;;
8861;SDS011;4799;50.996;4.754;2023-08-08T07:53:34;9.77;;;3.20;;
8861;SDS011;4799;50.996;4.754;2023-08-08T07:56:00;9.40;;;2.97;;
8861;SDS011;4799;50.996;4.754;2023-08-08T07:58:26;5.23;;;2.73;;
8861;SDS011;4799;50.996;4.754;2023-08-08T08:00:52;8.77;;;3.00;;
8861;SDS011;4799;50.996;4.754;2023-08-08T08:03:18;8.30;;;3.30;;
8861;SDS011;4799;50.996;4.754;2023-08-08T08:05:45;7.47;;;2.90;;
8861;SDS011;4799;50.996;4.754;2023-08-08T08:08:10;8.13;;;3.30;;
8861;SDS011;4799;50.996;4.754;2023-08-08T08:10:36;7.00;;;3.37;;
8861;SDS011;4799;50.996;4.754;2023-08-08T08:13:02;6.13;;;2.90;;
8861;SDS011;4799;50.996;4.754;2023-08-08T08:15:28;7.33;;;2.50;;
8861;SDS011;4799;50.996;4.754;2023-08-08T08:17:53;5.97;;;2.60;;
8861;SDS011;4799;50.996;4.754;2023-08-08T08:20:19;7.40;;;3.03;;
8861;SDS011;4799;50.996;4.754;2023-08-08T08:22:45;7.20;;;3.23;;
8861;SDS011;4799;50.996;4.754;2023-08-08T08:25:12;7.57;;;3.10;;
8861;SDS011;4799;50.996;4.754;2023-08-08T08:27:39;8.73;;;3.27;;
8861;SDS011;4799;50.996;4.754;2023-08-08T08:30:05;10.10;;;3.33;;
8861;SDS011;4799;50.996;4.754;2023-08-08T08:32:33;7.30;;;3.03;;
8861;SDS011;4799;50.996;4.754;2023-08-08T08:35:00;6.93;;;3.10;;
8861;SDS011;4799;50.996;4.754;2023-08-08T08:37:27;9.80;;;2.97;;
8861;SDS011;4799;50.996;4.754;2023-08-08T08:39:53;7.30;;;3.00;;
8861;SDS011;4799;50.996;4.754;2023-08-08T08:42:19;6.73;;;2.93;;
8861;SDS011;4799;50.996;4.754;2023-08-08T08:44:45;7.47;;;3.00;;
8861;SDS011;4799;50.996;4.754;2023-08-08T08:47:12;6.00;;;2.80;;
8861;SDS011;4799;50.996;4.754;2023-08-08T08:49:39;5.53;;;2.87;;
8861;SDS011;4799;50.996;4.754;2023-08-08T08:52:08;8.37;;;3.17;;
8861;SDS011;4799;50.996;4.754;2023-08-08T08:54:34;8.80;;;3.30;;
8861;SDS011;4799;50.996;4.754;2023-08-08T08:57:00;7.67;;;3.17;;
8861;SDS011;4799;50.996;4.754;2023-08-08T08:59:26;7.53;;;3.40;;
8861;SDS011;4799;50.996;4.754;2023-08-08T09:01:52;8.23;;;3.30;;
8861;SDS011;4799;50.996;4.754;2023-08-08T09:04:19;8.87;;;3.43;;
8861;SDS011;4799;50.996;4.754;2023-08-08T09:06:47;7.37;;;3.23;;
8861;SDS011;4799;50.996;4.754;2023-08-08T09:09:14;8.97;;;3.30;;
8861;SDS011;4799;50.996;4.754;2023-08-08T09:11:50;5.93;;;3.00;;
8861;SDS011;4799;50.996;4.754;2023-08-08T09:14:24;8.07;;;3.10;;
8861;SDS011;4799;50.996;4.754;2023-08-08T09:16:51;8.10;;;3.20;;
8861;SDS011;4799;50.996;4.754;2023-08-08T09:19:18;5.27;;;2.63;;
8861;SDS011;4799;50.996;4.754;2023-08-08T09:21:45;6.20;;;3.10;;
8861;SDS011;4799;50.996;4.754;2023-08-08T09:24:11;7.87;;;2.93;;
8861;SDS011;4799;50.996;4.754;2023-08-08T09:26:41;6.53;;;3.37;;
8861;SDS011;4799;50.996;4.754;2023-08-08T09:29:08;6.37;;;3.00;;
8861;SDS011;4799;50.996;4.754;2023-08-08T09:31:36;5.90;;;3.00;;
8861;SDS011;4799;50.996;4.754;2023-08-08T09:34:02;8.20;;;3.03;;
8861;SDS011;4799;50.996;4.754;2023-08-08T09:36:29;5.07;;;2.80;;
8861;SDS011;4799;50.996;4.754;2023-08-08T09:38:55;5.07;;;2.57;;
8861;SDS011;4799;50.996;4.754;2023-08-08T09:41:21;6.00;;;2.90;;
8861;SDS011;4799;50.996;4.754;2023-08-08T09:43:49;6.37;;;2.77;;
8861;SDS011;4799;50.996;4.754;2023-08-08T09:46:15;5.03;;;2.80;;
8861;SDS011;4799;50.996;4.754;2023-08-08T09:48:43;7.37;;;3.20;;
8861;SDS011;4799;50.996;4.754;2023-08-08T09:51:09;4.33;;;2.50;;
8861;SDS011;4799;50.996;4.754;2023-08-08T09:53:35;5.20;;;2.77;;
8861;SDS011;4799;50.996;4.754;2023-08-08T09:56:03;4.33;;;2.77;;
8861;SDS011;4799;50.996;4.754;2023-08-08T09:58:30;6.40;;;2.90;;
8861;SDS011;4799;50.996;4.754;2023-08-08T10:00:56;6.77;;;2.60;;
8861;SDS011;4799;50.996;4.754;2023-08-08T10:03:22;5.57;;;2.80;;
8861;SDS011;4799;50.996;4.754;2023-08-08T10:05:48;5.53;;;2.80;;
8861;SDS011;4799;50.996;4.754;2023-08-08T10:08:17;6.23;;;2.47;;
8861;SDS011;4799;50.996;4.754;2023-08-08T10:10:44;5.87;;;2.70;;
8861;SDS011;4799;50.996;4.754;2023-08-08T10:13:24;8.00;;;3.07;;
8861;SDS011;4799;50.996;4.754;2023-08-08T10:15:51;5.77;;;2.60;;
8861;SDS011;4799;50.996;4.754;2023-08-08T10:18:18;4.70;;;2.50;;
8861;SDS011;4799;50.996;4.754;2023-08-08T10:20:47;4.97;;;2.53;;
8861;SDS011;4799;50.996;4.754;2023-08-08T10:23:14;5.67;;;2.37;;
8861;SDS011;4799;50.996;4.754;2023-08-08T10:25:59;6.23;;;2.67;;
8861;SDS011;4799;50.996;4.754;2023-08-08T10:28:26;5.23;;;2.80;;
8861;SDS011;4799;50.996;4.754;2023-08-08T10:33:20;6.40;;;2.70;;
8861;SDS011;4799;50.996;4.754;2023-08-08T10:38:26;6.00;;;3.10;;
8861;SDS011;4799;50.996;4.754;2023-08-08T10:41:03;4.30;;;2.30;;
8861;SDS011;4799;50.996;4.754;2023-08-08T10:43:29;7.03;;;2.77;;
8861;SDS011;4799;50.996;4.754;2023-08-08T10:46:02;5.33;;;2.60;;
8861;SDS011;4799;50.996;4.754;2023-08-08T10:48:29;5.60;;;2.77;;
8861;SDS011;4799;50.996;4.754;2023-08-08T10:50:57;5.73;;;3.00;;
8861;SDS011;4799;50.996;4.754;2023-08-08T10:53:27;6.83;;;3.33;;
8861;SDS011;4799;50.996;4.754;2023-08-08T10:56:01;4.93;;;2.70;;
8861;SDS011;4799;50.996;4.754;2023-08-08T10:58:38;4.60;;;2.93;;
8861;SDS011;4799;50.996;4.754;2023-08-08T11:01:05;4.93;;;2.93;;
8861;SDS011;4799;50.996;4.754;2023-08-08T11:03:38;5.77;;;3.03;;
8861;SDS011;4799;50.996;4.754;2023-08-08T11:06:08;5.00;;;2.80;;
8861;SDS011;4799;50.996;4.754;2023-08-08T11:08:36;7.03;;;3.30;;
8861;SDS011;4799;50.996;4.754;2023-08-08T11:11:06;4.73;;;3.10;;
8861;SDS011;4799;50.996;4.754;2023-08-08T11:13:32;6.73;;;3.30;;
8861;SDS011;4799;50.996;4.754;2023-08-08T11:15:58;5.57;;;3.00;;
8861;SDS011;4799;50.996;4.754;2023-08-08T11:18:26;4.40;;;2.83;;
8861;SDS011;4799;50.996;4.754;2023-08-08T11:20:53;3.67;;;2.70;;
8861;SDS011;4799;50.996;4.754;2023-08-08T11:23:18;4.37;;;2.50;;
8861;SDS011;4799;50.996;4.754;2023-08-08T11:25:45;2.93;;;2.30;;
8861;SDS011;4799;50.996;4.754;2023-08-08T11:28:12;5.13;;;2.87;;
8861;SDS011;4799;50.996;4.754;2023-08-08T11:30:42;6.03;;;2.80;;
8861;SDS011;4799;50.996;4.754;2023-08-08T11:33:10;5.23;;;2.80;;
8861;SDS011;4799;50.996;4.754;2023-08-08T11:35:42;4.27;;;2.17;;
8861;SDS011;4799;50.996;4.754;2023-08-08T11:38:11;3.47;;;2.10;;
8861;SDS011;4799;50.996;4.754;2023-08-08T11:40:38;2.77;;;2.20;;
8861;SDS011;4799;50.996;4.754;2023-08-08T11:43:04;3.33;;;2.20;;
8861;SDS011;4799;50.996;4.754;2023-08-08T11:45:31;3.70;;;1.93;;
8861;SDS011;4799;50.996;4.754;2023-08-08T11:47:57;3.20;;;2.03;;
8861;SDS011;4799;50.996;4.754;2023-08-08T11:50:24;5.43;;;2.40;;
8861;SDS011;4799;50.996;4.754;2023-08-08T11:52:53;3.80;;;2.00;;
8861;SDS011;4799;50.996;4.754;2023-08-08T11:55:20;3.10;;;2.13;;
8861;SDS011;4799;50.996;4.754;2023-08-08T11:57:53;3.27;;;2.17;;
8861;SDS011;4799;50.996;4.754;2023-08-08T12:00:25;5.47;;;1.97;;
8861;SDS011;4799;50.996;4.754;2023-08-08T12:02:53;4.77;;;2.10;;
8861;SDS011;4799;50.996;4.754;2023-08-08T12:05:20;2.70;;;2.00;;
8861;SDS011;4799;50.996;4.754;2023-08-08T12:07:47;3.07;;;1.80;;
8861;SDS011;4799;50.996;4.754;2023-08-08T12:10:15;4.00;;;2.03;;
8861;SDS011;4799;50.996;4.754;2023-08-08T12:12:42;3.60;;;2.13;;
8861;SDS011;4799;50.996;4.754;2023-08-08T12:15:09;3.80;;;2.10;;
8861;SDS011;4799;50.996;4.754;2023-08-08T12:17:36;3.00;;;2.10;;
8861;SDS011;4799;50.996;4.754;2023-08-08T12:20:05;4.27;;;2.07;;
8861;SDS011;4799;50.996;4.754;2023-08-08T12:22:33;2.87;;;2.27;;
8861;SDS011;4799;50.996;4.754;2023-08-08T12:24:59;2.57;;;1.60;;
8861;SDS011;4799;50.996;4.754;2023-08-08T12:27:25;3.90;;;1.90;;
8861;SDS011;4799;50.996;4.754;2023-08-08T12:29:50;3.00;;;1.60;;
8861;SDS011;4799;50.996;4.754;2023-08-08T12:32:19;3.83;;;2.00;;
8861;SDS011;4799;50.996;4.754;2023-08-08T12:34:48;3.10;;;1.80;;
8861;SDS011;4799;50.996;4.754;2023-08-08T12:37:14;3.40;;;1.80;;
8861;SDS011;4799;50.996;4.754;2023-08-08T12:39:41;2.83;;;2.00;;
8861;SDS011;4799;50.996;4.754;2023-08-08T12:42:06;3.20;;;1.90;;
8861;SDS011;4799;50.996;4.754;2023-08-08T12:44:32;3.60;;;1.70;;
8861;SDS011;4799;50.996;4.754;2023-08-08T12:46:58;3.17;;;1.80;;
8861;SDS011;4799;50.996;4.754;2023-08-08T12:49:23;4.77;;;2.10;;
8861;SDS011;4799;50.996;4.754;2023-08-08T12:51:50;2.40;;;1.83;;
8861;SDS011;4799;50.996;4.754;2023-08-08T12:54:17;3.00;;;2.00;;
8861;SDS011;4799;50.996;4.754;2023-08-08T12:56:42;2.77;;;1.97;;
8861;SDS011;4799;50.996;4.754;2023-08-08T12:59:08;4.70;;;1.90;;
8861;SDS011;4799;50.996;4.754;2023-08-08T13:01:34;3.00;;;1.90;;
8861;SDS011;4799;50.996;4.754;2023-08-08T13:04:00;3.57;;;1.90;;
8861;SDS011;4799;50.996;4.754;2023-08-08T13:06:26;3.37;;;1.70;;
8861;SDS011;4799;50.996;4.754;2023-08-08T13:08:52;2.43;;;1.40;;
8861;SDS011;4799;50.996;4.754;2023-08-08T13:11:18;4.03;;;1.70;;
8861;SDS011;4799;50.996;4.754;2023-08-08T13:13:43;5.57;;;1.60;;
8861;SDS011;4799;50.996;4.754;2023-08-08T13:16:09;4.23;;;2.27;;
8861;SDS011;4799;50.996;4.754;2023-08-08T13:18:35;1.90;;;1.60;;
8861;SDS011;4799;50.996;4.754;2023-08-08T13:21:01;3.03;;;1.83;;
8861;SDS011;4799;50.996;4.754;2023-08-08T13:23:27;2.50;;;1.70;;
8861;SDS011;4799;50.996;4.754;2023-08-08T13:25:53;2.40;;;1.53;;
8861;SDS011;4799;50.996;4.754;2023-08-08T13:28:19;3.17;;;1.80;;
8861;SDS011;4799;50.996;4.754;2023-08-08T13:30:45;2.60;;;1.57;;
8861;SDS011;4799;50.996;4.754;2023-08-08T13:33:11;2.70;;;1.73;;
8861;SDS011;4799;50.996;4.754;2023-08-08T13:35:36;2.50;;;1.40;;
8861;SDS011;4799;50.996;4.754;2023-08-08T13:38:02;1.80;;;1.27;;
8861;SDS011;4799;50.996;4.754;2023-08-08T13:40:28;3.23;;;1.50;;
8861;SDS011;4799;50.996;4.754;2023-08-08T13:42:54;3.00;;;1.53;;
8861;SDS011;4799;50.996;4.754;2023-08-08T13:45:20;3.30;;;1.40;;
8861;SDS011;4799;50.996;4.754;2023-08-08T13:47:46;3.30;;;1.60;;
8861;SDS011;4799;50.996;4.754;2023-08-08T13:50:13;2.10;;;1.60;;
8861;SDS011;4799;50.996;4.754;2023-08-08T13:52:39;2.13;;;1.40;;
8861;SDS011;4799;50.996;4.754;2023-08-08T13:55:06;2.00;;;1.43;;
8861;SDS011;4799;50.996;4.754;2023-08-08T13:57:32;2.37;;;1.30;;
8861;SDS011;4799;50.996;4.754;2023-08-08T13:59:58;2.30;;;1.80;;
8861;SDS011;4799;50.996;4.754;2023-08-08T14:02:24;1.83;;;1.33;;
8861;SDS011;4799;50.996;4.754;2023-08-08T14:04:49;2.27;;;1.30;;
8861;SDS011;4799;50.996;4.754;2023-08-08T14:07:15;2.17;;;1.43;;
8861;SDS011;4799;50.996;4.754;2023-08-08T14:09:41;2.33;;;1.53;;
8861;SDS011;4799;50.996;4.754;2023-08-08T14:12:07;1.90;;;1.60;;
8861;SDS011;4799;50.996;4.754;2023-08-08T14:14:33;2.03;;;1.40;;
8861;SDS011;4799;50.996;4.754;2023-08-08T14:16:58;2.70;;;1.30;;
8861;SDS011;4799;50.996;4.754;2023-08-08T14:19:24;2.67;;;1.30;;
8861;SDS011;4799;50.996;4.754;2023-08-08T14:21:50;3.07;;;1.27;;
8861;SDS011;4799;50.996;4.754;2023-08-08T14:24:15;2.67;;;1.40;;
8861;SDS011;4799;50.996;4.754;2023-08-08T14:26:41;2.97;;;1.47;;
8861;SDS011;4799;50.996;4.754;2023-08-08T14:29:07;2.10;;;1.50;;
8861;SDS011;4799;50.996;4.754;2023-08-08T14:31:34;3.70;;;1.60;;
8861;SDS011;4799;50.996;4.754;2023-08-08T14:33:59;2.50;;;1.40;;
8861;SDS011;4799;50.996;4.754;2023-08-08T14:36:25;2.17;;;1.40;;
8861;SDS011;4799;50.996;4.754;2023-08-08T14:38:51;3.23;;;1.53;;
8861;SDS011;4799;50.996;4.754;2023-08-08T14:41:16;2.43;;;1.87;;
8861;SDS011;4799;50.996;4.754;2023-08-08T14:43:42;2.50;;;1.43;;
8861;SDS011;4799;50.996;4.754;2023-08-08T14:46:08;3.30;;;1.50;;
8861;SDS011;4799;50.996;4.754;2023-08-08T14:48:33;4.20;;;1.50;;
8861;SDS011;4799;50.996;4.754;2023-08-08T14:50:59;2.00;;;1.30;;
8861;SDS011;4799;50.996;4.754;2023-08-08T14:53:26;3.30;;;1.50;;
8861;SDS011;4799;50.996;4.754;2023-08-08T14:55:52;3.27;;;1.50;;
8861;SDS011;4799;50.996;4.754;2023-08-08T14:58:18;4.23;;;1.60;;
8861;SDS011;4799;50.996;4.754;2023-08-08T15:00:44;2.53;;;1.37;;
8861;SDS011;4799;50.996;4.754;2023-08-08T15:03:09;3.23;;;1.50;;
8861;SDS011;4799;50.996;4.754;2023-08-08T15:05:35;2.37;;;1.50;;
8861;SDS011;4799;50.996;4.754;2023-08-08T15:08:01;3.63;;;2.20;;
8861;SDS011;4799;50.996;4.754;2023-08-08T15:10:28;2.27;;;1.70;;
8861;SDS011;4799;50.996;4.754;2023-08-08T15:12:53;3.33;;;1.40;;
8861;SDS011;4799;50.996;4.754;2023-08-08T15:15:19;1.73;;;1.30;;